sensor_id;sensor_type;location;lat;lon;timestamp;P1;durP1;ratioP1;P2;durP2;ratioP2
10063;SDS011;5071;52.360;13.134;2022-09-03T00:00:54;1.60;;;0.97;;
10063;SDS011;5071;52.360;13.134;2022-09-03T00:06:01;0.70;;;0.70;;
10063;SDS011;5071;52.360;13.134;2022-09-03T00:11:10;1.33;;;0.80;;
10063;SDS011;5071;52.360;13.134;2022-09-03T00:16:20;1.30;;;1.20;;
10063;SDS011;5071;52.360;13.134;2022-09-03T00:21:30;1.33;;;0.80;;
10063;SDS011;5071;52.360;13.134;2022-09-03T00:26:38;2.23;;;1.00;;
10063;SDS011;5071;52.360;13.134;2022-09-03T00:31:46;1.50;;;1.03;;
10063;SDS011;5071;52.360;13.134;2022-09-03T00:36:52;1.53;;;1.07;;
10063;SDS011;5071;52.360;13.134;2022-09-03T00:41:58;1.53;;;0.80;;
10063;SDS011;5071;52.360;13.134;2022-09-03T00:47:10;1.97;;;1.00;;
10063;SDS011;5071;52.360;13.134;2022-09-03T00:52:18;2.43;;;1.40;;
10063;SDS011;5071;52.360;13.134;2022-09-03T00:57:36;1.00;;;0.70;;
10063;SDS011;5071;52.360;13.134;2022-09-03T01:02:58;1.60;;;0.77;;
10063;SDS011;5071;52.360;13.134;2022-09-03T01:08:09;2.40;;;1.10;;
10063;SDS011;5071;52.360;13.134;2022-09-03T01:13:21;3.57;;;1.10;;
10063;SDS011;5071;52.360;13.134;2022-09-03T01:18:33;2.60;;;0.90;;
10063;SDS011;5071;52.360;13.134;2022-09-03T01:23:46;0.93;;;0.80;;
10063;SDS011;5071;52.360;13.134;2022-09-03T01:29:07;3.57;;;1.00;;
10063;SDS011;5071;52.360;13.134;2022-09-03T01:34:19;1.43;;;0.80;;
10063;SDS011;5071;52.360;13.134;2022-09-03T01:39:32;3.93;;;1.20;;
10063;SDS011;5071;52.360;13.134;2022-09-03T01:44:49;1.43;;;0.97;;
10063;SDS011;5071;52.360;13.134;2022-09-03T01:50:12;1.43;;;1.03;;
10063;SDS011;5071;52.360;13.134;2022-09-03T01:55:25;0.80;;;0.80;;
10063;SDS011;5071;52.360;13.134;2022-09-03T02:00:34;1.97;;;0.80;;
10063;SDS011;5071;52.360;13.134;2022-09-03T02:05:42;2.57;;;0.70;;
10063;SDS011;5071;52.360;13.134;2022-09-03T02:10:45;1.33;;;0.97;;
10063;SDS011;5071;52.360;13.134;2022-09-03T02:15:51;0.83;;;0.70;;
10063;SDS011;5071;52.360;13.134;2022-09-03T02:20:57;1.10;;;0.80;;
10063;SDS011;5071;52.360;13.134;2022-09-03T02:26:02;2.40;;;0.80;;
10063;SDS011;5071;52.360;13.134;2022-09-03T02:31:05;2.70;;;1.07;;
10063;SDS011;5071;52.360;13.134;2022-09-03T02:36:08;0.77;;;0.77;;
10063;SDS011;5071;52.360;13.134;2022-09-03T02:41:12;1.20;;;0.87;;
10063;SDS011;5071;52.360;13.134;2022-09-03T02:46:17;1.00;;;0.90;;
10063;SDS011;5071;52.360;13.134;2022-09-03T02:51:23;0.80;;;0.80;;
10063;SDS011;5071;52.360;13.134;2022-09-03T02:56:27;1.30;;;0.93;;
10063;SDS011;5071;52.360;13.134;2022-09-03T03:01:30;1.10;;;0.80;;
10063;SDS011;5071;52.360;13.134;2022-09-03T03:06:33;0.97;;;0.90;;
10063;SDS011;5071;52.360;13.134;2022-09-03T03:11:35;2.30;;;0.90;;
10063;SDS011;5071;52.360;13.134;2022-09-03T03:16:38;1.30;;;0.80;;
10063;SDS011;5071;52.360;13.134;2022-09-03T03:21:40;1.50;;;0.97;;
10063;SDS011;5071;52.360;13.134;2022-09-03T03:26:42;2.97;;;0.80;;
10063;SDS011;5071;52.360;13.134;2022-09-03T03:31:46;2.03;;;0.90;;
10063;SDS011;5071;52.360;13.134;2022-09-03T03:36:48;1.33;;;0.83;;
10063;SDS011;5071;52.360;13.134;2022-09-03T03:41:50;2.40;;;0.73;;
10063;SDS011;5071;52.360;13.134;2022-09-03T03:46:53;1.47;;;1.10;;
10063;SDS011;5071;52.360;13.134;2022-09-03T03:51:56;1.43;;;0.80;;
10063;SDS011;5071;52.360;13.134;2022-09-03T03:56:57;1.20;;;0.70;;
10063;SDS011;5071;52.360;13.134;2022-09-03T04:02:01;1.33;;;1.00;;
10063;SDS011;5071;52.360;13.134;2022-09-03T04:07:03;1.70;;;0.90;;
10063;SDS011;5071;52.360;13.134;2022-09-03T04:12:06;2.73;;;1.13;;
10063;SDS011;5071;52.360;13.134;2022-09-03T04:17:10;1.23;;;0.70;;
10063;SDS011;5071;52.360;13.134;2022-09-03T04:22:11;0.80;;;0.70;;
10063;SDS011;5071;52.360;13.134;2022-09-03T04:27:14;0.70;;;0.70;;
10063;SDS011;5071;52.360;13.134;2022-09-03T04:32:17;2.67;;;1.00;;
10063;SDS011;5071;52.360;13.134;2022-09-03T04:37:19;1.13;;;1.00;;
10063;SDS011;5071;52.360;13.134;2022-09-03T04:42:21;0.97;;;0.83;;
10063;SDS011;5071;52.360;13.134;2022-09-03T04:47:24;2.10;;;1.10;;
10063;SDS011;5071;52.360;13.134;2022-09-03T04:52:27;1.17;;;0.90;;
10063;SDS011;5071;52.360;13.134;2022-09-03T04:57:29;1.67;;;0.90;;
10063;SDS011;5071;52.360;13.134;2022-09-03T05:02:32;1.70;;;0.90;;
10063;SDS011;5071;52.360;13.134;2022-09-03T05:07:34;1.50;;;0.77;;
10063;SDS011;5071;52.360;13.134;2022-09-03T05:12:36;1.20;;;0.80;;
10063;SDS011;5071;52.360;13.134;2022-09-03T05:17:39;2.40;;;0.70;;
10063;SDS011;5071;52.360;13.134;2022-09-03T05:22:41;1.73;;;0.90;;
10063;SDS011;5071;52.360;13.134;2022-09-03T05:27:43;3.07;;;1.00;;
10063;SDS011;5071;52.360;13.134;2022-09-03T05:32:46;1.73;;;1.00;;
10063;SDS011;5071;52.360;13.134;2022-09-03T05:37:48;2.07;;;1.13;;
10063;SDS011;5071;52.360;13.134;2022-09-03T05:42:53;2.40;;;0.87;;
10063;SDS011;5071;52.360;13.134;2022-09-03T05:47:59;4.67;;;1.10;;
10063;SDS011;5071;52.360;13.134;2022-09-03T05:53:01;1.83;;;1.10;;
10063;SDS011;5071;52.360;13.134;2022-09-03T05:58:04;1.10;;;0.90;;
10063;SDS011;5071;52.360;13.134;2022-09-03T06:03:07;1.47;;;0.90;;
10063;SDS011;5071;52.360;13.134;2022-09-03T06:08:09;1.43;;;1.20;;
10063;SDS011;5071;52.360;13.134;2022-09-03T06:13:13;4.90;;;1.37;;
10063;SDS011;5071;52.360;13.134;2022-09-03T06:18:16;1.20;;;0.87;;
10063;SDS011;5071;52.360;13.134;2022-09-03T06:23:18;1.00;;;0.90;;
10063;SDS011;5071;52.360;13.134;2022-09-03T06:28:20;3.80;;;1.27;;
10063;SDS011;5071;52.360;13.134;2022-09-03T06:33:26;2.93;;;1.30;;
10063;SDS011;5071;52.360;13.134;2022-09-03T06:38:29;1.23;;;1.10;;
10063;SDS011;5071;52.360;13.134;2022-09-03T06:43:33;1.53;;;1.23;;
10063;SDS011;5071;52.360;13.134;2022-09-03T06:48:37;1.10;;;0.80;;
10063;SDS011;5071;52.360;13.134;2022-09-03T06:53:40;1.20;;;1.03;;
10063;SDS011;5071;52.360;13.134;2022-09-03T06:58:44;1.83;;;1.13;;
10063;SDS011;5071;52.360;13.134;2022-09-03T07:03:51;0.90;;;0.90;;
10063;SDS011;5071;52.360;13.134;2022-09-03T07:08:54;2.73;;;1.53;;
10063;SDS011;5071;52.360;13.134;2022-09-03T07:13:56;1.73;;;0.97;;
10063;SDS011;5071;52.360;13.134;2022-09-03T07:19:01;2.00;;;1.20;;
10063;SDS011;5071;52.360;13.134;2022-09-03T07:24:04;2.47;;;1.23;;
10063;SDS011;5071;52.360;13.134;2022-09-03T07:29:07;1.43;;;1.27;;
10063;SDS011;5071;52.360;13.134;2022-09-03T07:34:10;1.57;;;1.23;;
10063;SDS011;5071;52.360;13.134;2022-09-03T07:39:13;1.23;;;1.03;;
10063;SDS011;5071;52.360;13.134;2022-09-03T07:44:16;2.93;;;1.20;;
10063;SDS011;5071;52.360;13.134;2022-09-03T07:49:20;1.67;;;1.20;;
10063;SDS011;5071;52.360;13.134;2022-09-03T07:54:22;2.97;;;0.90;;
10063;SDS011;5071;52.360;13.134;2022-09-03T07:59:25;1.37;;;0.93;;
10063;SDS011;5071;52.360;13.134;2022-09-03T08:04:28;1.33;;;1.17;;
10063;SDS011;5071;52.360;13.134;2022-09-03T08:09:30;1.83;;;1.20;;
10063;SDS011;5071;52.360;13.134;2022-09-03T08:14:32;1.40;;;1.20;;
10063;SDS011;5071;52.360;13.134;2022-09-03T08:19:35;3.37;;;1.30;;
10063;SDS011;5071;52.360;13.134;2022-09-03T08:24:37;2.07;;;1.30;;
10063;SDS011;5071;52.360;13.134;2022-09-03T08:29:39;3.80;;;1.07;;
10063;SDS011;5071;52.360;13.134;2022-09-03T08:34:43;1.23;;;0.93;;
10063;SDS011;5071;52.360;13.134;2022-09-03T08:39:44;1.80;;;1.10;;
10063;SDS011;5071;52.360;13.134;2022-09-03T08:44:47;2.30;;;1.00;;
10063;SDS011;5071;52.360;13.134;2022-09-03T08:49:54;1.10;;;0.93;;
10063;SDS011;5071;52.360;13.134;2022-09-03T08:55:02;1.77;;;1.00;;
10063;SDS011;5071;52.360;13.134;2022-09-03T09:00:16;1.50;;;1.03;;
10063;SDS011;5071;52.360;13.134;2022-09-03T09:05:22;4.33;;;1.23;;
10063;SDS011;5071;52.360;13.134;2022-09-03T09:10:29;4.17;;;1.00;;
10063;SDS011;5071;52.360;13.134;2022-09-03T09:15:39;2.77;;;1.10;;
10063;SDS011;5071;52.360;13.134;2022-09-03T09:20:52;1.30;;;0.85;;
10063;SDS011;5071;52.360;13.134;2022-09-03T09:26:00;1.00;;;0.88;;
10063;SDS011;5071;52.360;13.134;2022-09-03T09:31:09;0.90;;;0.65;;
10063;SDS011;5071;52.360;13.134;2022-09-03T09:36:15;2.15;;;0.82;;
10063;SDS011;5071;52.360;13.134;2022-09-03T09:41:18;1.75;;;0.90;;
10063;SDS011;5071;52.360;13.134;2022-09-03T09:46:28;0.60;;;0.60;;
10063;SDS011;5071;52.360;13.134;2022-09-03T09:51:37;3.25;;;1.20;;
10063;SDS011;5071;52.360;13.134;2022-09-03T09:56:41;1.05;;;0.80;;
10063;SDS011;5071;52.360;13.134;2022-09-03T10:01:43;1.00;;;0.75;;
10063;SDS011;5071;52.360;13.134;2022-09-03T10:06:52;2.28;;;0.80;;
10063;SDS011;5071;52.360;13.134;2022-09-03T10:12:04;1.65;;;0.98;;
10063;SDS011;5071;52.360;13.134;2022-09-03T10:17:15;0.88;;;0.80;;
10063;SDS011;5071;52.360;13.134;2022-09-03T10:22:26;0.98;;;0.80;;
10063;SDS011;5071;52.360;13.134;2022-09-03T10:27:35;0.80;;;0.68;;
10063;SDS011;5071;52.360;13.134;2022-09-03T10:32:42;0.98;;;0.68;;
10063;SDS011;5071;52.360;13.134;2022-09-03T10:37:57;1.00;;;0.68;;
10063;SDS011;5071;52.360;13.134;2022-09-03T10:43:11;0.82;;;0.55;;
10063;SDS011;5071;52.360;13.134;2022-09-03T10:48:30;1.13;;;0.77;;
10063;SDS011;5071;52.360;13.134;2022-09-03T10:53:57;1.75;;;0.80;;
10063;SDS011;5071;52.360;13.134;2022-09-03T10:59:22;0.50;;;0.50;;
10063;SDS011;5071;52.360;13.134;2022-09-03T11:04:32;1.88;;;0.95;;
10063;SDS011;5071;52.360;13.134;2022-09-03T11:09:47;1.95;;;0.80;;
10063;SDS011;5071;52.360;13.134;2022-09-03T11:14:54;1.33;;;1.00;;
10063;SDS011;5071;52.360;13.134;2022-09-03T11:20:03;0.50;;;0.50;;
10063;SDS011;5071;52.360;13.134;2022-09-03T11:25:14;0.98;;;0.80;;
10063;SDS011;5071;52.360;13.134;2022-09-03T11:30:21;1.90;;;0.90;;
10063;SDS011;5071;52.360;13.134;2022-09-03T11:35:26;1.05;;;0.95;;
10063;SDS011;5071;52.360;13.134;2022-09-03T11:40:32;1.27;;;1.10;;
10063;SDS011;5071;52.360;13.134;2022-09-03T11:45:37;1.60;;;0.93;;
10063;SDS011;5071;52.360;13.134;2022-09-03T11:50:40;4.40;;;1.60;;
10063;SDS011;5071;52.360;13.134;2022-09-03T11:55:57;1.30;;;0.90;;
10063;SDS011;5071;52.360;13.134;2022-09-03T12:01:03;0.80;;;0.75;;
10063;SDS011;5071;52.360;13.134;2022-09-03T12:06:20;1.40;;;0.93;;
10063;SDS011;5071;52.360;13.134;2022-09-03T12:11:43;0.80;;;0.80;;
10063;SDS011;5071;52.360;13.134;2022-09-03T12:17:04;0.75;;;0.75;;
10063;SDS011;5071;52.360;13.134;2022-09-03T12:22:15;0.85;;;0.70;;
10063;SDS011;5071;52.360;13.134;2022-09-03T12:27:21;0.90;;;0.68;;
10063;SDS011;5071;52.360;13.134;2022-09-03T12:32:24;1.80;;;0.90;;
10063;SDS011;5071;52.360;13.134;2022-09-03T12:37:31;2.10;;;1.05;;
10063;SDS011;5071;52.360;13.134;2022-09-03T12:42:59;1.55;;;0.90;;
10063;SDS011;5071;52.360;13.134;2022-09-03T12:48:34;1.15;;;0.80;;
10063;SDS011;5071;52.360;13.134;2022-09-03T12:53:40;1.00;;;0.60;;
10063;SDS011;5071;52.360;13.134;2022-09-03T12:58:45;1.48;;;0.90;;
10063;SDS011;5071;52.360;13.134;2022-09-03T13:03:52;2.45;;;0.90;;
10063;SDS011;5071;52.360;13.134;2022-09-03T13:08:59;0.68;;;0.63;;
10063;SDS011;5071;52.360;13.134;2022-09-03T13:14:05;1.15;;;1.05;;
10063;SDS011;5071;52.360;13.134;2022-09-03T13:19:11;1.30;;;0.70;;
10063;SDS011;5071;52.360;13.134;2022-09-03T13:24:26;1.08;;;0.88;;
10063;SDS011;5071;52.360;13.134;2022-09-03T13:30:00;3.28;;;0.80;;
10063;SDS011;5071;52.360;13.134;2022-09-03T13:35:22;3.33;;;1.25;;
10063;SDS011;5071;52.360;13.134;2022-09-03T13:40:44;0.90;;;0.80;;
10063;SDS011;5071;52.360;13.134;2022-09-03T13:45:55;1.42;;;0.90;;
10063;SDS011;5071;52.360;13.134;2022-09-03T13:51:10;4.18;;;1.33;;
10063;SDS011;5071;52.360;13.134;2022-09-03T13:56:25;2.38;;;1.15;;
10063;SDS011;5071;52.360;13.134;2022-09-03T14:01:49;1.88;;;1.08;;
10063;SDS011;5071;52.360;13.134;2022-09-03T14:07:05;1.60;;;1.20;;
10063;SDS011;5071;52.360;13.134;2022-09-03T14:12:36;2.38;;;1.08;;
10063;SDS011;5071;52.360;13.134;2022-09-03T14:17:51;1.85;;;1.00;;
10063;SDS011;5071;52.360;13.134;2022-09-03T14:23:09;1.63;;;1.10;;
10063;SDS011;5071;52.360;13.134;2022-09-03T14:28:36;2.20;;;0.82;;
10063;SDS011;5071;52.360;13.134;2022-09-03T14:33:48;1.08;;;0.90;;
10063;SDS011;5071;52.360;13.134;2022-09-03T14:39:26;1.80;;;1.00;;
10063;SDS011;5071;52.360;13.134;2022-09-03T14:45:05;2.25;;;1.10;;
10063;SDS011;5071;52.360;13.134;2022-09-03T14:50:46;2.20;;;1.30;;
10063;SDS011;5071;52.360;13.134;2022-09-03T14:56:12;2.55;;;1.30;;
10063;SDS011;5071;52.360;13.134;2022-09-03T15:01:38;2.63;;;0.98;;
10063;SDS011;5071;52.360;13.134;2022-09-03T15:06:49;1.30;;;0.98;;
10063;SDS011;5071;52.360;13.134;2022-09-03T15:12:09;1.27;;;1.05;;
10063;SDS011;5071;52.360;13.134;2022-09-03T15:17:25;2.72;;;1.25;;
10063;SDS011;5071;52.360;13.134;2022-09-03T15:23:01;3.72;;;1.10;;
10063;SDS011;5071;52.360;13.134;2022-09-03T15:28:21;1.50;;;1.23;;
10063;SDS011;5071;52.360;13.134;2022-09-03T15:33:35;1.88;;;1.23;;
10063;SDS011;5071;52.360;13.134;2022-09-03T15:38:57;1.40;;;1.00;;
10063;SDS011;5071;52.360;13.134;2022-09-03T15:44:32;1.77;;;1.08;;
10063;SDS011;5071;52.360;13.134;2022-09-03T15:49:46;2.00;;;1.23;;
10063;SDS011;5071;52.360;13.134;2022-09-03T15:55:08;3.47;;;1.40;;
10063;SDS011;5071;52.360;13.134;2022-09-03T16:00:38;2.63;;;1.90;;
10063;SDS011;5071;52.360;13.134;2022-09-03T16:05:55;3.50;;;1.23;;
10063;SDS011;5071;52.360;13.134;2022-09-03T16:11:06;3.47;;;1.20;;
10063;SDS011;5071;52.360;13.134;2022-09-03T16:16:14;1.55;;;1.20;;
10063;SDS011;5071;52.360;13.134;2022-09-03T16:21:25;1.90;;;1.30;;
10063;SDS011;5071;52.360;13.134;2022-09-03T16:26:33;1.70;;;1.30;;
10063;SDS011;5071;52.360;13.134;2022-09-03T16:31:42;1.42;;;1.13;;
10063;SDS011;5071;52.360;13.134;2022-09-03T16:36:56;4.80;;;1.30;;
10063;SDS011;5071;52.360;13.134;2022-09-03T16:42:10;3.13;;;1.42;;
10063;SDS011;5071;52.360;13.134;2022-09-03T16:47:24;2.30;;;1.23;;
10063;SDS011;5071;52.360;13.134;2022-09-03T16:52:37;1.47;;;1.00;;
10063;SDS011;5071;52.360;13.134;2022-09-03T17:08:47;2.97;;;1.20;;
10063;SDS011;5071;52.360;13.134;2022-09-03T17:14:09;2.73;;;1.60;;
10063;SDS011;5071;52.360;13.134;2022-09-03T17:19:23;1.53;;;1.20;;
10063;SDS011;5071;52.360;13.134;2022-09-03T17:24:34;5.63;;;1.40;;
10063;SDS011;5071;52.360;13.134;2022-09-03T17:29:43;1.63;;;1.20;;
10063;SDS011;5071;52.360;13.134;2022-09-03T17:35:04;1.73;;;1.13;;
10063;SDS011;5071;52.360;13.134;2022-09-03T17:40:16;1.30;;;1.10;;
10063;SDS011;5071;52.360;13.134;2022-09-03T17:45:31;2.00;;;1.37;;
10063;SDS011;5071;52.360;13.134;2022-09-03T17:50:43;1.97;;;1.50;;
10063;SDS011;5071;52.360;13.134;2022-09-03T17:55:52;1.87;;;1.40;;
10063;SDS011;5071;52.360;13.134;2022-09-03T18:00:59;2.90;;;1.63;;
10063;SDS011;5071;52.360;13.134;2022-09-03T18:06:08;2.40;;;1.40;;
10063;SDS011;5071;52.360;13.134;2022-09-03T18:11:21;2.20;;;1.37;;
10063;SDS011;5071;52.360;13.134;2022-09-03T18:16:36;9.90;;;1.60;;
10063;SDS011;5071;52.360;13.134;2022-09-03T18:21:42;2.97;;;1.43;;
10063;SDS011;5071;52.360;13.134;2022-09-03T18:26:46;3.13;;;1.43;;
10063;SDS011;5071;52.360;13.134;2022-09-03T18:31:57;2.37;;;1.40;;
10063;SDS011;5071;52.360;13.134;2022-09-03T18:36:59;3.50;;;1.60;;
10063;SDS011;5071;52.360;13.134;2022-09-03T18:42:04;2.90;;;1.47;;
10063;SDS011;5071;52.360;13.134;2022-09-03T18:47:22;3.30;;;1.30;;
10063;SDS011;5071;52.360;13.134;2022-09-03T18:52:55;3.97;;;1.70;;
10063;SDS011;5071;52.360;13.134;2022-09-03T18:58:03;4.80;;;2.33;;
10063;SDS011;5071;52.360;13.134;2022-09-03T19:03:23;2.30;;;1.70;;
10063;SDS011;5071;52.360;13.134;2022-09-03T19:08:37;2.50;;;1.90;;
10063;SDS011;5071;52.360;13.134;2022-09-03T19:13:44;2.60;;;1.37;;
10063;SDS011;5071;52.360;13.134;2022-09-03T19:19:05;2.23;;;1.87;;
10063;SDS011;5071;52.360;13.134;2022-09-03T19:24:21;2.40;;;2.03;;
10063;SDS011;5071;52.360;13.134;2022-09-03T19:29:36;4.03;;;1.80;;
10063;SDS011;5071;52.360;13.134;2022-09-03T19:35:00;2.87;;;1.90;;
10063;SDS011;5071;52.360;13.134;2022-09-03T19:40:12;1.83;;;1.40;;
10063;SDS011;5071;52.360;13.134;2022-09-03T19:45:26;2.47;;;1.63;;
10063;SDS011;5071;52.360;13.134;2022-09-03T19:50:40;1.63;;;1.37;;
10063;SDS011;5071;52.360;13.134;2022-09-03T19:55:51;2.73;;;1.60;;
10063;SDS011;5071;52.360;13.134;2022-09-03T20:00:55;2.43;;;1.63;;
10063;SDS011;5071;52.360;13.134;2022-09-03T20:05:58;2.60;;;1.57;;
10063;SDS011;5071;52.360;13.134;2022-09-03T20:11:15;3.40;;;1.57;;
10063;SDS011;5071;52.360;13.134;2022-09-03T20:16:21;2.40;;;1.70;;
10063;SDS011;5071;52.360;13.134;2022-09-03T20:21:32;2.47;;;1.80;;
10063;SDS011;5071;52.360;13.134;2022-09-03T20:26:42;2.60;;;1.80;;
10063;SDS011;5071;52.360;13.134;2022-09-03T20:31:52;4.50;;;1.80;;
10063;SDS011;5071;52.360;13.134;2022-09-03T20:37:05;2.60;;;1.43;;
10063;SDS011;5071;52.360;13.134;2022-09-03T20:42:17;2.53;;;1.30;;
10063;SDS011;5071;52.360;13.134;2022-09-03T20:47:44;1.90;;;1.30;;
10063;SDS011;5071;52.360;13.134;2022-09-03T20:53:00;2.47;;;1.50;;
10063;SDS011;5071;52.360;13.134;2022-09-03T20:58:12;2.53;;;1.83;;
10063;SDS011;5071;52.360;13.134;2022-09-03T21:03:23;2.90;;;1.67;;
10063;SDS011;5071;52.360;13.134;2022-09-03T21:08:47;2.40;;;1.63;;
10063;SDS011;5071;52.360;13.134;2022-09-03T21:14:00;3.47;;;1.43;;
10063;SDS011;5071;52.360;13.134;2022-09-03T21:19:14;3.50;;;1.60;;
10063;SDS011;5071;52.360;13.134;2022-09-03T21:24:23;2.10;;;1.60;;
10063;SDS011;5071;52.360;13.134;2022-09-03T21:29:33;2.70;;;1.50;;
10063;SDS011;5071;52.360;13.134;2022-09-03T21:34:42;2.20;;;1.60;;
10063;SDS011;5071;52.360;13.134;2022-09-03T21:39:53;1.40;;;1.30;;
10063;SDS011;5071;52.360;13.134;2022-09-03T21:44:57;2.97;;;1.67;;
10063;SDS011;5071;52.360;13.134;2022-09-03T21:50:04;2.27;;;1.23;;
10063;SDS011;5071;52.360;13.134;2022-09-03T21:55:20;2.27;;;1.50;;
10063;SDS011;5071;52.360;13.134;2022-09-03T22:00:28;2.00;;;1.30;;
10063;SDS011;5071;52.360;13.134;2022-09-03T22:05:31;2.13;;;1.73;;
10063;SDS011;5071;52.360;13.134;2022-09-03T22:10:48;1.63;;;1.53;;
10063;SDS011;5071;52.360;13.134;2022-09-03T22:16:00;1.83;;;1.50;;
10063;SDS011;5071;52.360;13.134;2022-09-03T22:21:12;2.23;;;1.30;;
10063;SDS011;5071;52.360;13.134;2022-09-03T22:26:25;1.60;;;1.20;;
10063;SDS011;5071;52.360;13.134;2022-09-03T22:31:38;2.30;;;1.60;;
10063;SDS011;5071;52.360;13.134;2022-09-03T22:36:50;1.93;;;1.40;;
10063;SDS011;5071;52.360;13.134;2022-09-03T22:42:03;2.53;;;1.27;;
10063;SDS011;5071;52.360;13.134;2022-09-03T22:47:17;2.43;;;1.50;;
10063;SDS011;5071;52.360;13.134;2022-09-03T22:52:30;2.23;;;1.40;;
10063;SDS011;5071;52.360;13.134;2022-09-03T22:57:44;2.60;;;1.37;;
10063;SDS011;5071;52.360;13.134;2022-09-03T23:02:53;5.90;;;1.60;;
10063;SDS011;5071;52.360;13.134;2022-09-03T23:08:04;2.83;;;1.27;;
10063;SDS011;5071;52.360;13.134;2022-09-03T23:13:13;1.30;;;1.10;;
10063;SDS011;5071;52.360;13.134;2022-09-03T23:18:21;2.57;;;1.37;;
10063;SDS011;5071;52.360;13.134;2022-09-03T23:23:27;2.20;;;1.17;;
10063;SDS011;5071;52.360;13.134;2022-09-03T23:28:33;3.13;;;1.70;;
10063;SDS011;5071;52.360;13.134;2022-09-03T23:33:38;4.23;;;1.47;;
10063;SDS011;5071;52.360;13.134;2022-09-03T23:38:44;2.00;;;1.47;;
10063;SDS011;5071;52.360;13.134;2022-09-03T23:44:08;2.43;;;1.23;;
10063;SDS011;5071;52.360;13.134;2022-09-03T23:49:31;2.23;;;1.50;;
10063;SDS011;5071;52.360;13.134;2022-09-03T23:54:41;1.60;;;1.17;;
10063;SDS011;5071;52.360;13.134;2022-09-03T23:59:54;1.67;;;1.30;;
